createdAt,value
2023-04-07T00:02:44.379Z,26.63
2023-04-07T00:05:33.637Z,27.07
2023-04-07T00:08:23.767Z,28.50
2023-04-07T00:11:13.093Z,29.70
2023-04-07T00:14:02.115Z,24.13
2023-04-07T00:16:50.823Z,26.50
2023-04-07T00:19:39.531Z,28.43
2023-04-07T00:22:28.541Z,30.73
2023-04-07T00:25:19.057Z,30.27
2023-04-07T00:28:07.804Z,29.23
2023-04-07T00:30:56.623Z,31.10
2023-04-07T00:33:45.403Z,27.63
2023-04-07T00:36:34.273Z,27.63
2023-04-07T00:39:23.056Z,31.23
2023-04-07T00:42:13.291Z,30.57
2023-04-07T00:45:02.125Z,31.70
2023-04-07T00:47:50.983Z,29.97
2023-04-07T00:50:39.802Z,30.03
2023-04-07T00:53:28.592Z,31.77
2023-04-07T00:56:17.452Z,29.87
2023-04-07T00:59:07.658Z,31.67
2023-04-07T01:02:04.092Z,28.87
2023-04-07T01:04:57.609Z,30.53
2023-04-07T01:07:56.009Z,34.57
2023-04-07T01:10:51.629Z,31.03
2023-04-07T01:13:47.445Z,33.27
2023-04-07T01:16:49.361Z,30.20
2023-04-07T01:19:44.572Z,30.87
2023-04-07T01:22:38.730Z,31.73
2023-04-07T01:25:43.955Z,30.50
2023-04-07T01:28:51.075Z,34.73
2023-04-07T01:31:43.226Z,33.30
2023-04-07T01:34:34.014Z,31.77
2023-04-07T01:37:24.260Z,35.43
2023-04-07T01:40:15.673Z,33.93
2023-04-07T01:43:04.886Z,33.90
2023-04-07T01:45:55.119Z,34.00
2023-04-07T01:48:46.887Z,33.73
2023-04-07T01:51:36.941Z,40.90
2023-04-07T01:54:26.303Z,32.73
2023-04-07T01:57:15.518Z,35.67
2023-04-07T02:00:05.305Z,34.17
2023-04-07T02:03:10.469Z,34.37
2023-04-07T02:06:08.731Z,41.40
2023-04-07T02:09:06.910Z,35.07
2023-04-07T02:11:58.596Z,36.23
2023-04-07T02:14:48.095Z,38.13
2023-04-07T02:17:41.251Z,39.57
2023-04-07T02:20:31.195Z,38.83
2023-04-07T02:23:21.379Z,42.20
2023-04-07T02:26:10.543Z,40.90
2023-04-07T02:28:59.406Z,37.23
2023-04-07T02:31:48.146Z,43.23
2023-04-07T02:34:38.193Z,40.50
2023-04-07T02:37:28.703Z,39.93
2023-04-07T02:40:19.009Z,43.23
2023-04-07T02:43:07.700Z,42.87
2023-04-07T02:45:56.562Z,41.50
2023-04-07T02:48:45.758Z,44.00
2023-04-07T02:51:34.676Z,44.27
2023-04-07T02:54:23.486Z,46.77
2023-04-07T02:57:14.252Z,46.80
2023-04-07T03:00:03.949Z,44.50
2023-04-07T03:03:08.823Z,46.73
2023-04-07T03:06:00.952Z,49.37
2023-04-07T03:08:49.928Z,44.20
2023-04-07T03:11:39.669Z,45.37
2023-04-07T03:14:29.839Z,44.37
2023-04-07T03:17:18.839Z,49.53
2023-04-07T03:20:11.169Z,52.13
2023-04-07T03:23:00.846Z,49.30
2023-04-07T03:25:51.689Z,51.40
2023-04-07T03:28:40.987Z,49.37
2023-04-07T03:31:31.755Z,49.80
2023-04-07T03:34:20.862Z,47.23
2023-04-07T03:37:09.832Z,50.97
2023-04-07T03:39:59.725Z,50.00
2023-04-07T03:42:52.840Z,48.03
2023-04-07T03:45:41.832Z,47.37
2023-04-07T03:48:32.934Z,49.23
2023-04-07T03:51:29.794Z,47.23
2023-04-07T03:54:20.771Z,50.33
2023-04-07T03:57:09.728Z,52.47
2023-04-07T04:00:04.623Z,52.73
2023-04-07T04:03:05.809Z,54.13
2023-04-07T04:05:58.303Z,52.13
2023-04-07T04:08:51.116Z,51.53
2023-04-07T04:11:41.678Z,47.87
2023-04-07T04:14:31.084Z,50.07
2023-04-07T04:17:23.020Z,55.67
2023-04-07T04:20:12.595Z,51.10
2023-04-07T04:23:09.276Z,52.20
2023-04-07T04:26:00.356Z,47.50
2023-04-07T04:28:50.413Z,46.30
2023-04-07T04:31:41.718Z,48.30
2023-04-07T04:34:32.303Z,47.77
2023-04-07T04:37:21.624Z,50.13
2023-04-07T04:40:13.283Z,46.43
2023-04-07T04:43:06.936Z,47.77
2023-04-07T04:45:58.294Z,48.27
2023-04-07T04:48:49.991Z,50.50
2023-04-07T04:51:39.969Z,49.93
2023-04-07T04:54:35.453Z,46.23
2023-04-07T04:57:25.813Z,47.67
2023-04-07T05:00:15.736Z,47.70
2023-04-07T05:03:07.140Z,48.23
2023-04-07T05:06:00.163Z,47.77
2023-04-07T05:08:49.168Z,50.03
2023-04-07T05:11:42.286Z,48.73
2023-04-07T05:14:33.106Z,50.30
2023-04-07T05:17:27.210Z,52.97
2023-04-07T05:20:16.523Z,51.90
2023-04-07T05:23:05.456Z,47.27
2023-04-07T05:25:55.869Z,53.30
2023-04-07T05:28:45.453Z,60.53
2023-04-07T05:31:41.559Z,54.57
2023-04-07T05:34:34.489Z,54.80
2023-04-07T05:37:23.194Z,52.23
2023-04-07T05:40:14.086Z,55.20
2023-04-07T05:43:03.434Z,48.60
2023-04-07T05:45:54.154Z,48.67
2023-04-07T05:48:45.590Z,46.70
2023-04-07T05:51:35.633Z,51.07
2023-04-07T05:54:30.355Z,46.60
2023-04-07T05:57:20.168Z,50.13
2023-04-07T06:00:12.078Z,45.63
2023-04-07T06:03:04.049Z,45.60
2023-04-07T06:06:01.524Z,45.97
2023-04-07T06:08:50.925Z,51.23
2023-04-07T06:11:39.784Z,47.23
2023-04-07T06:14:28.727Z,47.00
2023-04-07T06:17:17.603Z,46.57
2023-04-07T06:20:09.811Z,48.07
2023-04-07T06:22:59.950Z,46.57
2023-04-07T06:25:52.045Z,47.90
2023-04-07T06:28:41.272Z,50.10
2023-04-07T06:31:30.449Z,45.13
2023-04-07T06:34:19.503Z,45.33
2023-04-07T06:37:08.667Z,44.70
2023-04-07T06:39:58.908Z,43.57
2023-04-07T06:42:47.655Z,44.53
2023-04-07T06:45:47.697Z,44.57
2023-04-07T06:48:36.517Z,43.57
2023-04-07T06:51:25.148Z,43.70
2023-04-07T06:54:14.940Z,41.37
2023-04-07T06:57:06.862Z,43.27
2023-04-07T06:59:55.751Z,39.77
2023-04-07T07:02:44.646Z,46.27
2023-04-07T07:05:33.967Z,50.50
2023-04-07T07:08:22.968Z,44.17
2023-04-07T07:11:12.181Z,45.40
2023-04-07T07:14:02.825Z,41.27
2023-04-07T07:16:51.927Z,39.67
2023-04-07T07:19:40.650Z,42.53
2023-04-07T07:22:29.391Z,38.83
2023-04-07T07:25:18.802Z,41.17
2023-04-07T07:28:07.678Z,41.73
2023-04-07T07:30:58.278Z,38.23
2023-04-07T07:33:49.233Z,41.33
2023-04-07T07:36:38.378Z,36.60
2023-04-07T07:39:27.255Z,41.37
2023-04-07T07:42:16.451Z,42.17
2023-04-07T07:45:05.806Z,39.43
2023-04-07T07:47:56.120Z,42.50
2023-04-07T07:50:45.915Z,42.80
2023-04-07T07:53:35.032Z,43.03
2023-04-07T07:56:24.075Z,42.00
2023-04-07T07:59:12.993Z,41.27
2023-04-07T08:02:02.187Z,39.43
2023-04-07T08:04:52.542Z,39.03
2023-04-07T08:07:43.223Z,36.40
2023-04-07T08:10:32.252Z,37.63
2023-04-07T08:13:21.017Z,36.40
2023-04-07T08:16:10.023Z,35.70
2023-04-07T08:18:58.912Z,35.17
2023-04-07T08:21:49.820Z,34.90
2023-04-07T08:24:38.795Z,37.13
2023-04-07T08:27:27.589Z,34.13
2023-04-07T08:30:17.031Z,33.63
2023-04-07T08:33:07.842Z,33.42
2023-04-07T08:35:56.989Z,34.58
2023-04-07T08:38:47.204Z,37.03
2023-04-07T08:41:39.536Z,32.55
2023-04-07T08:44:31.124Z,31.17
2023-04-07T08:47:20.270Z,31.83
2023-04-07T08:50:11.272Z,28.85
2023-04-07T08:53:06.386Z,38.55
2023-04-07T08:55:58.117Z,29.92
2023-04-07T08:58:47.995Z,30.40
2023-04-07T09:01:38.193Z,32.25
2023-04-07T09:04:27.728Z,29.88
2023-04-07T09:07:16.564Z,28.10
2023-04-07T09:10:06.576Z,30.58
2023-04-07T09:12:56.734Z,26.35
2023-04-07T09:15:45.699Z,33.67
2023-04-07T09:18:34.965Z,28.23
2023-04-07T09:21:23.834Z,29.88
2023-04-07T09:24:23.404Z,27.73
2023-04-07T09:27:17.517Z,30.65
2023-04-07T09:30:16.041Z,32.00
2023-04-07T09:33:05.242Z,27.38
2023-04-07T09:35:54.827Z,33.05
2023-04-07T09:38:46.206Z,26.80
2023-04-07T09:41:35.012Z,28.27
2023-04-07T09:44:24.735Z,26.88
2023-04-07T09:47:15.332Z,32.95
2023-04-07T09:50:07.384Z,27.08
2023-04-07T09:52:56.694Z,26.27
2023-04-07T09:55:46.404Z,30.23
2023-04-07T09:58:35.352Z,35.28
2023-04-07T10:01:24.176Z,28.58
2023-04-07T10:04:14.897Z,27.02
2023-04-07T10:07:04.571Z,33.55
2023-04-07T10:09:53.693Z,29.10
2023-04-07T10:12:43.674Z,29.90
2023-04-07T10:15:33.151Z,31.70
2023-04-07T10:18:23.650Z,32.58
2023-04-07T10:21:16.399Z,33.95
2023-04-07T10:24:20.198Z,30.63
2023-04-07T10:27:14.289Z,30.95
2023-04-07T10:30:05.201Z,29.67
2023-04-07T10:32:55.517Z,29.25
2023-04-07T10:36:07.414Z,29.10
2023-04-07T10:39:22.925Z,25.85
2023-04-07T10:42:48.954Z,27.92
2023-04-07T10:45:54.418Z,25.00
2023-04-07T10:48:43.318Z,23.88
2023-04-07T10:51:32.319Z,25.63
2023-04-07T10:54:29.025Z,22.00
2023-04-07T10:57:18.559Z,23.05
2023-04-07T11:00:17.931Z,23.58
2023-04-07T11:03:14.155Z,23.13
2023-04-07T11:06:08.507Z,23.58
2023-04-07T11:08:57.584Z,21.00
2023-04-07T11:11:48.884Z,21.35
2023-04-07T11:14:38.238Z,19.70
2023-04-07T11:17:28.286Z,19.85
2023-04-07T11:20:17.079Z,21.73
2023-04-07T11:23:05.803Z,18.83
2023-04-07T11:26:01.369Z,17.10
2023-04-07T11:28:53.014Z,19.65
2023-04-07T11:31:41.945Z,24.08
2023-04-07T11:34:31.956Z,18.98
2023-04-07T11:37:21.768Z,19.13
2023-04-07T11:40:13.019Z,18.30
2023-04-07T11:43:02.658Z,19.45
2023-04-07T11:46:10.927Z,18.25
2023-04-07T11:49:11.131Z,19.85
2023-04-07T11:52:01.102Z,21.35
2023-04-07T11:54:50.699Z,17.27
2023-04-07T11:57:39.506Z,18.10
2023-04-07T12:00:28.268Z,16.52
2023-04-07T12:03:18.987Z,17.17
2023-04-07T12:06:08.675Z,14.85
2023-04-07T12:08:57.475Z,15.85
2023-04-07T12:11:51.123Z,14.30
2023-04-07T12:14:40.019Z,16.55
2023-04-07T12:17:28.854Z,16.58
2023-04-07T12:20:19.317Z,17.63
2023-04-07T12:23:08.060Z,19.08
2023-04-07T12:25:56.792Z,15.15
2023-04-07T12:28:45.543Z,15.93
2023-04-07T12:31:34.647Z,16.70
2023-04-07T12:34:23.416Z,17.70
2023-04-07T12:37:13.703Z,19.27
2023-04-07T12:40:02.460Z,16.95
2023-04-07T12:42:51.206Z,16.45
2023-04-07T12:45:40.058Z,15.70
2023-04-07T12:48:28.848Z,11.57
2023-04-07T12:51:17.691Z,11.45
2023-04-07T12:54:08.106Z,8.27
2023-04-07T12:56:57.542Z,8.48
2023-04-07T12:59:46.603Z,8.20
2023-04-07T13:02:38.279Z,4.38
2023-04-07T13:05:27.502Z,4.43
2023-04-07T13:08:16.426Z,5.35
2023-04-07T13:11:07.294Z,4.07
2023-04-07T13:13:57.928Z,6.85
2023-04-07T13:16:48.832Z,7.05
2023-04-07T13:19:37.750Z,4.22
2023-04-07T13:22:26.813Z,6.63
2023-04-07T13:25:16.099Z,3.85
2023-04-07T13:28:06.761Z,4.38
2023-04-07T13:30:55.636Z,4.45
2023-04-07T13:33:44.492Z,4.43
2023-04-07T13:36:33.809Z,5.40
2023-04-07T13:39:22.730Z,4.60
2023-04-07T13:42:12.698Z,6.82
2023-04-07T13:45:03.328Z,4.75
2023-04-07T13:47:52.434Z,5.88
2023-04-07T13:50:42.224Z,4.80
2023-04-07T13:53:31.012Z,5.03
2023-04-07T13:56:20.045Z,5.13
2023-04-07T13:59:09.587Z,3.83
2023-04-07T14:02:00.494Z,5.10
2023-04-07T14:04:49.560Z,3.95
2023-04-07T14:07:38.483Z,6.38
2023-04-07T14:10:27.414Z,5.15
2023-04-07T14:13:16.880Z,5.32
2023-04-07T14:16:06.515Z,7.32
2023-04-07T14:19:22.489Z,5.60
2023-04-07T14:22:11.309Z,6.20
2023-04-07T14:25:00.833Z,5.72
2023-04-07T14:27:49.981Z,7.75
2023-04-07T14:30:39.309Z,5.75
2023-04-07T14:33:28.070Z,5.47
2023-04-07T14:36:18.415Z,5.03
2023-04-07T14:39:07.256Z,4.88
2023-04-07T14:41:56.179Z,5.30
2023-04-07T14:44:44.975Z,4.47
2023-04-07T14:47:33.947Z,4.45
2023-04-07T14:50:23.966Z,4.13
2023-04-07T14:53:14.595Z,3.90
2023-04-07T14:56:06.007Z,4.70
2023-04-07T14:58:54.884Z,5.50
2023-04-07T15:01:43.627Z,4.35
2023-04-07T15:04:32.624Z,4.75
2023-04-07T15:07:21.469Z,6.03
2023-04-07T15:10:14.500Z,4.68
2023-04-07T15:13:03.944Z,8.55
2023-04-07T15:15:52.852Z,5.45
2023-04-07T15:18:44.887Z,5.13
2023-04-07T15:21:33.944Z,4.50
2023-04-07T15:24:22.817Z,6.07
2023-04-07T15:27:13.184Z,4.82
2023-04-07T15:30:02.322Z,6.60
2023-04-07T15:33:00.783Z,5.03
2023-04-07T15:35:49.635Z,5.93
2023-04-07T15:38:40.507Z,7.10
2023-04-07T15:41:29.345Z,5.85
2023-04-07T15:44:20.244Z,4.85
2023-04-07T15:47:11.901Z,5.68
2023-04-07T15:50:00.982Z,3.80
2023-04-07T15:52:49.793Z,6.82
2023-04-07T15:55:38.848Z,4.97
2023-04-07T15:58:27.568Z,5.65
2023-04-07T16:01:17.862Z,5.95
2023-04-07T16:04:06.850Z,5.95
2023-04-07T16:06:56.094Z,5.40
2023-04-07T16:09:44.818Z,4.90
2023-04-07T16:12:34.511Z,4.95
2023-04-07T16:15:38.759Z,10.55
2023-04-07T16:18:30.634Z,4.95
2023-04-07T16:21:19.494Z,5.05
2023-04-07T16:24:08.267Z,5.57
2023-04-07T16:26:57.222Z,4.55
2023-04-07T16:29:45.956Z,4.68
2023-04-07T16:32:34.889Z,4.32
2023-04-07T16:35:25.134Z,4.35
2023-04-07T16:38:13.990Z,3.95
2023-04-07T16:41:04.824Z,5.38
2023-04-07T16:43:53.697Z,3.50
2023-04-07T16:46:42.391Z,4.55
2023-04-07T16:49:31.283Z,4.13
2023-04-07T16:52:21.511Z,4.32
2023-04-07T16:55:13.779Z,5.60
2023-04-07T16:58:02.621Z,4.70
2023-04-07T17:00:51.921Z,3.95
2023-04-07T17:03:41.626Z,4.20
2023-04-07T17:06:31.130Z,4.93
2023-04-07T17:09:21.514Z,4.60
2023-04-07T17:12:11.105Z,4.38
2023-04-07T17:14:59.872Z,5.80
2023-04-07T17:17:48.667Z,5.43
2023-04-07T17:20:37.552Z,4.45
2023-04-07T17:23:28.371Z,4.18
2023-04-07T17:26:18.681Z,6.47
2023-04-07T17:29:07.430Z,4.93
2023-04-07T17:31:57.231Z,6.18
2023-04-07T17:34:46.162Z,7.43
2023-04-07T17:37:35.123Z,4.35
2023-04-07T17:40:24.559Z,6.43
2023-04-07T17:43:14.712Z,6.05
2023-04-07T17:46:04.697Z,4.90
2023-04-07T17:48:54.535Z,6.03
2023-04-07T17:51:43.200Z,5.47
2023-04-07T17:54:32.097Z,6.65
2023-04-07T17:57:20.893Z,6.45
2023-04-07T18:00:12.393Z,6.68
2023-04-07T18:03:04.259Z,5.55
2023-04-07T18:05:53.499Z,5.55
2023-04-07T18:08:42.920Z,5.10
2023-04-07T18:11:32.549Z,4.85
2023-04-07T18:14:21.621Z,6.63
2023-04-07T18:17:13.015Z,6.10
2023-04-07T18:20:02.249Z,6.35
2023-04-07T18:22:52.799Z,5.47
2023-04-07T18:25:41.866Z,7.45
2023-04-07T18:28:31.308Z,4.75
2023-04-07T18:31:20.400Z,5.45
2023-04-07T18:34:11.511Z,6.93
2023-04-07T18:37:00.414Z,5.68
2023-04-07T18:39:49.824Z,4.60
2023-04-07T18:42:38.848Z,5.60
2023-04-07T18:45:28.020Z,5.05
2023-04-07T18:48:17.805Z,5.65
2023-04-07T18:51:08.767Z,5.10
2023-04-07T18:53:57.718Z,5.93
2023-04-07T18:56:46.592Z,5.47
2023-04-07T18:59:35.502Z,5.47
2023-04-07T19:02:24.598Z,6.22
2023-04-07T19:05:14.241Z,6.45
2023-04-07T19:08:04.555Z,7.18
2023-04-07T19:10:53.373Z,7.93
2023-04-07T19:13:42.515Z,7.90
2023-04-07T19:16:31.443Z,7.22
2023-04-07T19:19:20.447Z,8.27
2023-04-07T19:22:09.855Z,9.55
2023-04-07T19:25:00.122Z,8.13
2023-04-07T19:27:48.862Z,8.55
2023-04-07T19:30:37.723Z,8.70
2023-04-07T19:33:26.556Z,8.55
2023-04-07T19:36:15.557Z,7.22
2023-04-07T19:39:05.608Z,8.18
2023-04-07T19:41:56.267Z,8.10
2023-04-07T19:44:44.964Z,9.15
2023-04-07T19:47:34.113Z,8.88
2023-04-07T19:50:23.076Z,8.55
2023-04-07T19:53:15.996Z,9.90
2023-04-07T19:56:05.456Z,9.75
2023-04-07T19:58:55.734Z,9.52
2023-04-07T20:01:44.798Z,8.48
2023-04-07T20:04:34.583Z,9.52
2023-04-07T20:07:23.319Z,6.95
2023-04-07T20:10:15.873Z,6.10
2023-04-07T20:13:06.388Z,6.97
2023-04-07T20:15:56.763Z,6.53
2023-04-07T20:18:45.519Z,7.00
2023-04-07T20:21:34.363Z,6.18
2023-04-07T20:24:23.256Z,5.78
2023-04-07T20:27:14.694Z,6.45
2023-04-07T20:30:04.137Z,4.88
2023-04-07T20:32:54.780Z,6.85
2023-04-07T20:35:44.041Z,5.80
2023-04-07T20:38:33.522Z,5.70
2023-04-07T20:41:23.842Z,5.93
2023-04-07T20:44:13.456Z,5.82
2023-04-07T20:47:09.021Z,5.63
2023-04-07T20:50:00.604Z,5.70
2023-04-07T20:52:49.555Z,6.20
2023-04-07T20:55:38.503Z,6.43
2023-04-07T20:58:27.717Z,6.47
2023-04-07T21:01:16.768Z,6.00
2023-04-07T21:04:06.087Z,6.63
2023-04-07T21:06:56.363Z,6.03
2023-04-07T21:09:45.206Z,6.80
2023-04-07T21:12:34.057Z,7.07
2023-04-07T21:15:23.108Z,6.88
2023-04-07T21:18:12.548Z,7.90
2023-04-07T21:21:03.160Z,7.55
2023-04-07T21:23:53.245Z,7.72
2023-04-07T21:26:42.007Z,8.32
2023-04-07T21:29:32.346Z,7.30
2023-04-07T21:32:21.146Z,7.68
2023-04-07T21:35:13.288Z,7.27
2023-04-07T21:38:02.200Z,7.35
2023-04-07T21:40:52.414Z,8.38
2023-04-07T21:43:41.257Z,8.33
2023-04-07T21:46:30.244Z,8.40
2023-04-07T21:49:22.263Z,7.57
2023-04-07T21:52:11.109Z,7.93
2023-04-07T21:54:59.858Z,9.13
2023-04-07T21:57:50.911Z,7.15
2023-04-07T22:00:39.879Z,7.10
2023-04-07T22:03:29.677Z,8.10
2023-04-07T22:06:18.922Z,7.95
2023-04-07T22:09:08.541Z,8.65
2023-04-07T22:11:57.507Z,8.18
2023-04-07T22:14:47.596Z,7.80
2023-04-07T22:17:36.913Z,7.47
2023-04-07T22:20:27.248Z,8.50
2023-04-07T22:23:16.043Z,8.55
2023-04-07T22:26:06.027Z,7.57
2023-04-07T22:28:54.755Z,8.20
2023-04-07T22:31:44.844Z,7.93
2023-04-07T22:34:33.774Z,8.60
2023-04-07T22:37:22.551Z,8.13
2023-04-07T22:40:12.469Z,9.13
2023-04-07T22:43:01.462Z,8.47
2023-04-07T22:45:50.239Z,9.63
2023-04-07T22:48:40.577Z,9.15
2023-04-07T22:51:30.223Z,10.60
2023-04-07T22:54:19.634Z,9.30
2023-04-07T22:57:08.533Z,9.43
2023-04-07T22:59:57.392Z,8.80
2023-04-07T23:02:46.886Z,9.23
2023-04-07T23:05:37.300Z,9.83
2023-04-07T23:08:26.265Z,9.90
2023-04-07T23:11:15.838Z,11.98
2023-04-07T23:14:06.296Z,11.10
2023-04-07T23:16:56.338Z,12.07
2023-04-07T23:19:45.437Z,11.25
2023-04-07T23:22:36.163Z,10.97
2023-04-07T23:25:25.382Z,10.90
2023-04-07T23:28:14.409Z,11.83
2023-04-07T23:31:03.750Z,12.13
2023-04-07T23:33:52.595Z,11.60
2023-04-07T23:36:42.191Z,12.70
2023-04-07T23:39:32.431Z,13.43
2023-04-07T23:42:21.136Z,13.87
2023-04-07T23:45:10.860Z,15.57
2023-04-07T23:47:59.737Z,13.50
2023-04-07T23:50:51.424Z,15.53
2023-04-07T23:53:40.105Z,15.15
2023-04-07T23:56:30.296Z,13.77
2023-04-07T23:59:19.107Z,13.68
